KMYP

Monarch Pass Airport

Monarch Pass, Colorado, USA
METAR KMYP 160131Z AUTO 26023KT 10SM CLR M06/M11 A3048 RMK AO2
Observed Flight Rules
Dec-16 @ 01:31 UTC (14 minutes ago) Visual Flight Rules
Wind Visibility Clouds
260° at 23 knots 10 miles
  • Clear skies
Temperatures Readings
Current -6°C / 21°F
Dewpoint -11°C / 12°F
Humidity 68%
Altimeter 30.48" Hg
Pressure 1032 hPa
Elevation 3667
METAR KMYP 160131Z AUTO 26023KT 10SM CLR M06/M11 A3048 RMK AO2
Observed Flight Rules
Dec-16 @ 01:31 UTC
(14 minutes ago)
VFR
Wind Visibility
260° at 23 knots 10 miles
Clouds
  • Clear skies
Temperature Dewpoint
-6°C / 21°F -11°C / 12°F
Humidity Altimeter Pressure
68% 30.48" Hg 1032 hPa